createdAt,value
2019-05-10T00:02:52.821Z,94.57
2019-05-10T00:06:18.434Z,94.68
2019-05-10T00:09:25.073Z,96.04
2019-05-10T00:12:42.127Z,95.23
2019-05-10T00:15:48.758Z,96.16
2019-05-10T00:18:55.266Z,96.05
2019-05-10T00:22:02.172Z,96.32
2019-05-10T00:25:09.297Z,96.66
2019-05-10T00:28:15.683Z,96.07
2019-05-10T00:31:22.770Z,94.72
2019-05-10T00:34:29.281Z,94.84
2019-05-10T00:37:35.903Z,95.09
2019-05-10T00:40:42.490Z,94.10
2019-05-10T00:43:49.162Z,93.18
2019-05-10T00:46:56.000Z,93.29
2019-05-10T00:50:02.676Z,95.94
2019-05-10T00:53:09.297Z,97.92
2019-05-10T00:56:17.172Z,97.07
2019-05-10T00:59:23.879Z,97.43
2019-05-10T01:02:31.044Z,95.67
2019-05-10T01:05:37.584Z,96.19
2019-05-10T01:08:44.390Z,97.49
2019-05-10T01:11:51.051Z,98.98
2019-05-10T01:14:58.726Z,98.31
2019-05-10T01:18:05.288Z,97.76
2019-05-10T01:21:12.401Z,97.79
2019-05-10T01:24:19.901Z,98.25
2019-05-10T01:27:28.694Z,97.98
2019-05-10T01:30:35.275Z,98.33
2019-05-10T01:33:42.071Z,98.81
2019-05-10T01:36:48.555Z,97.75
2019-05-10T01:39:55.233Z,96.07
2019-05-10T01:43:01.827Z,96.16
2019-05-10T01:46:08.371Z,97.44
2019-05-10T01:49:14.865Z,98.12
2019-05-10T01:52:21.325Z,98.03
2019-05-10T01:55:27.803Z,96.23
2019-05-10T01:58:34.310Z,98.55
2019-05-10T02:01:40.999Z,98.62
2019-05-10T02:04:47.474Z,97.28
2019-05-10T02:07:53.876Z,98.46
2019-05-10T02:11:02.164Z,99.76
2019-05-10T02:14:08.784Z,98.80
2019-05-10T02:17:15.850Z,100.00
2019-05-10T02:20:22.350Z,99.04
2019-05-10T02:23:29.313Z,98.15
2019-05-10T02:26:36.173Z,98.15
2019-05-10T02:29:42.918Z,97.87
2019-05-10T02:32:49.376Z,98.12
2019-05-10T02:35:56.123Z,98.15
2019-05-10T02:39:02.616Z,97.25
2019-05-10T02:42:10.275Z,99.30
2019-05-10T02:45:16.996Z,97.39
2019-05-10T02:48:23.489Z,98.34
2019-05-10T02:51:30.164Z,98.79
2019-05-10T02:54:36.769Z,98.04
2019-05-10T02:57:43.764Z,98.91
2019-05-10T03:00:53.018Z,98.61
2019-05-10T03:04:03.041Z,98.64
2019-05-10T03:07:10.765Z,98.50
2019-05-10T03:10:17.607Z,98.40
2019-05-10T03:13:31.147Z,98.29
2019-05-10T03:16:40.430Z,96.66
2019-05-10T03:19:48.133Z,97.27
2019-05-10T03:22:55.461Z,96.95
2019-05-10T03:26:02.121Z,95.50
2019-05-10T03:29:08.687Z,94.99
2019-05-10T03:32:15.546Z,98.01
2019-05-10T03:35:21.982Z,97.84
2019-05-10T03:38:28.718Z,98.58
2019-05-10T03:41:35.495Z,96.17
2019-05-10T03:44:43.001Z,98.59
2019-05-10T03:47:49.783Z,98.50
2019-05-10T03:50:56.282Z,98.14
2019-05-10T03:54:02.752Z,98.66
2019-05-10T03:57:13.927Z,98.00
2019-05-10T04:00:18.446Z,97.96
2019-05-10T04:03:25.031Z,98.74
2019-05-10T04:06:31.508Z,97.92
2019-05-10T04:09:38.083Z,97.19
2019-05-10T04:12:44.776Z,98.31
2019-05-10T04:15:55.188Z,97.47
2019-05-10T04:19:01.818Z,97.37
2019-05-10T04:22:08.276Z,97.90
2019-05-10T04:25:15.168Z,97.53
2019-05-10T04:28:21.759Z,98.03
2019-05-10T04:31:27.891Z,97.88
2019-05-10T04:34:34.357Z,97.15
2019-05-10T04:37:41.008Z,96.30
2019-05-10T04:40:47.545Z,96.30
2019-05-10T04:43:54.029Z,97.30
2019-05-10T04:47:00.683Z,96.37
2019-05-10T04:50:07.326Z,97.31
2019-05-10T04:53:13.879Z,96.84
2019-05-10T04:56:20.545Z,97.04
2019-05-10T04:59:27.000Z,97.88
2019-05-10T05:02:33.541Z,97.81
2019-05-10T05:05:40.228Z,95.72
2019-05-10T05:08:46.811Z,97.91
2019-05-10T05:11:55.674Z,97.53
2019-05-10T05:15:02.223Z,97.09
2019-05-10T05:18:09.193Z,97.46
2019-05-10T05:21:15.973Z,96.94
2019-05-10T05:24:24.351Z,97.40
2019-05-10T05:27:31.256Z,96.81
2019-05-10T05:30:38.902Z,97.34
2019-05-10T05:33:45.470Z,96.87
2019-05-10T05:36:52.066Z,97.76
2019-05-10T05:39:58.499Z,97.83
2019-05-10T05:43:08.285Z,96.70
2019-05-10T05:46:14.610Z,96.39
2019-05-10T05:49:21.486Z,96.95
2019-05-10T05:52:28.012Z,97.37
2019-05-10T05:55:34.491Z,97.17
2019-05-10T05:58:44.640Z,96.15
2019-05-10T06:01:49.152Z,96.45
2019-05-10T06:04:55.608Z,95.32
2019-05-10T06:08:02.203Z,97.37
2019-05-10T06:11:09.271Z,96.85
2019-05-10T06:14:17.048Z,93.80
2019-05-10T06:17:28.826Z,93.35
2019-05-10T06:20:31.900Z,97.01
2019-05-10T06:23:38.734Z,97.62
2019-05-10T06:26:45.324Z,96.96
2019-05-10T06:29:51.816Z,97.76
2019-05-10T06:33:00.765Z,98.77
2019-05-10T06:36:07.079Z,97.17
2019-05-10T06:39:13.843Z,98.08
2019-05-10T06:42:21.407Z,96.97
2019-05-10T06:45:28.111Z,96.75
2019-05-10T06:48:34.878Z,95.81
2019-05-10T06:51:42.787Z,96.00
2019-05-10T06:54:49.750Z,96.09
2019-05-10T06:58:00.583Z,93.76
2019-05-10T07:01:04.421Z,93.12
2019-05-10T07:04:11.051Z,92.48
2019-05-10T07:07:33.020Z,89.29
2019-05-10T07:10:25.860Z,87.93
2019-05-10T07:13:32.407Z,87.96
2019-05-10T07:16:38.963Z,85.20
2019-05-10T07:19:53.578Z,86.26
2019-05-10T07:22:53.864Z,85.43
2019-05-10T07:26:02.175Z,86.19
2019-05-10T07:29:08.645Z,85.38
2019-05-10T07:32:16.320Z,83.51
2019-05-10T07:35:23.585Z,82.01
2019-05-10T07:38:31.160Z,79.26
2019-05-10T07:41:40.676Z,79.56
2019-05-10T07:44:48.843Z,75.60
2019-05-10T07:48:02.456Z,78.70
2019-05-10T07:51:06.778Z,76.52
2019-05-10T07:54:13.474Z,76.05
2019-05-10T07:57:24.647Z,76.53
2019-05-10T08:00:30.697Z,75.98
2019-05-10T08:03:44.134Z,73.83
2019-05-10T08:06:48.697Z,72.03
2019-05-10T08:09:54.977Z,72.58
2019-05-10T08:13:04.591Z,73.03
2019-05-10T08:16:18.964Z,72.61
2019-05-10T08:19:19.610Z,73.43
2019-05-10T08:22:26.165Z,74.13
2019-05-10T08:25:39.622Z,73.56
2019-05-10T08:28:44.662Z,72.24
2019-05-10T08:31:53.608Z,69.15
2019-05-10T08:34:58.973Z,69.62
2019-05-10T08:38:05.740Z,66.42
2019-05-10T08:41:16.462Z,63.43
2019-05-10T08:44:23.909Z,61.82
2019-05-10T08:47:32.168Z,63.81
2019-05-10T08:50:49.548Z,63.34
2019-05-10T08:53:47.280Z,64.18
2019-05-10T08:57:01.189Z,62.71
2019-05-10T09:00:08.777Z,64.34
2019-05-10T09:03:18.370Z,63.25
2019-05-10T09:06:22.054Z,63.50
2019-05-10T09:09:33.733Z,61.51
2019-05-10T09:12:44.255Z,61.41
2019-05-10T09:15:51.704Z,57.31
2019-05-10T09:18:53.794Z,56.73
2019-05-10T09:22:01.985Z,57.26
2019-05-10T09:25:08.607Z,57.99
2019-05-10T09:28:17.108Z,59.80
2019-05-10T09:31:25.697Z,59.61
2019-05-10T09:34:32.595Z,58.79
2019-05-10T09:37:42.091Z,56.63
2019-05-10T09:40:55.566Z,57.49
2019-05-10T09:43:58.138Z,55.88
2019-05-10T09:47:07.118Z,54.44
2019-05-10T09:50:14.049Z,53.11
2019-05-10T09:53:25.708Z,54.81
2019-05-10T09:56:32.785Z,53.59
2019-05-10T09:59:37.140Z,55.78
2019-05-10T10:02:47.721Z,55.27
2019-05-10T10:05:55.056Z,56.21
2019-05-10T10:09:00.895Z,56.63
2019-05-10T10:12:09.520Z,57.29
2019-05-10T10:15:25.301Z,57.55
2019-05-10T10:18:25.576Z,56.36
2019-05-10T10:21:35.567Z,56.42
2019-05-10T10:24:41.193Z,56.79
2019-05-10T10:27:48.075Z,55.67
2019-05-10T10:31:00.024Z,54.76
2019-05-10T10:34:03.402Z,54.78
2019-05-10T10:37:14.595Z,53.92
2019-05-10T10:40:20.384Z,54.60
2019-05-10T10:43:27.360Z,56.44
2019-05-10T10:46:34.801Z,55.28
2019-05-10T10:49:41.618Z,56.87
2019-05-10T10:52:48.168Z,56.21
2019-05-10T10:56:00.883Z,57.05
2019-05-10T10:59:03.198Z,56.06
2019-05-10T11:02:32.130Z,58.10
2019-05-10T11:05:20.557Z,57.15
2019-05-10T11:08:27.083Z,57.27
2019-05-10T11:11:38.966Z,52.60
2019-05-10T11:14:45.332Z,55.18
2019-05-10T11:17:50.737Z,57.55
2019-05-10T11:20:57.301Z,56.94
2019-05-10T11:24:03.761Z,54.43
2019-05-10T11:27:13.097Z,56.87
2019-05-10T11:30:21.354Z,58.30
2019-05-10T11:33:32.958Z,55.19
2019-05-10T11:36:40.509Z,53.62
2019-05-10T11:39:47.099Z,56.22
2019-05-10T11:42:54.999Z,52.96
2019-05-10T11:46:01.725Z,54.00
2019-05-10T11:49:10.573Z,54.56
2019-05-10T11:52:16.619Z,53.83
2019-05-10T11:55:23.263Z,54.18
2019-05-10T11:58:31.147Z,52.81
2019-05-10T12:01:41.697Z,54.58
2019-05-10T12:04:46.062Z,52.91
2019-05-10T12:07:54.965Z,53.30
2019-05-10T12:11:12.380Z,54.67
2019-05-10T12:14:13.597Z,54.57
2019-05-10T12:17:17.770Z,55.17
2019-05-10T12:20:39.375Z,54.56
2019-05-10T12:23:32.759Z,55.89
2019-05-10T12:29:55.955Z,56.27
2019-05-10T12:32:58.095Z,56.19
2019-05-10T12:36:04.805Z,56.35
2019-05-10T12:39:11.735Z,56.49
2019-05-10T12:42:18.620Z,56.76
2019-05-10T12:45:25.422Z,56.16
2019-05-10T12:48:35.603Z,56.95
2019-05-10T12:51:40.913Z,54.94
2019-05-10T12:54:48.869Z,54.37
2019-05-10T12:57:55.498Z,55.22
2019-05-10T13:01:02.036Z,56.88
2019-05-10T13:04:14.746Z,57.62
2019-05-10T13:07:16.872Z,57.27
2019-05-10T13:10:23.375Z,56.13
2019-05-10T13:13:30.322Z,55.29
2019-05-10T13:16:36.984Z,55.73
2019-05-10T13:19:43.457Z,56.78
2019-05-10T13:22:50.079Z,56.81
2019-05-10T13:25:56.861Z,56.86
2019-05-10T13:29:08.078Z,58.01
2019-05-10T13:32:14.909Z,57.07
2019-05-10T13:35:20.061Z,55.87
2019-05-10T13:38:27.244Z,57.76
2019-05-10T13:41:33.732Z,57.93
2019-05-10T13:44:42.935Z,63.98
2019-05-10T13:47:48.602Z,69.82
2019-05-10T13:50:55.201Z,68.79
2019-05-10T13:54:04.562Z,69.63
2019-05-10T13:57:10.291Z,68.52
2019-05-10T14:00:17.151Z,64.10
2019-05-10T14:03:23.703Z,63.93
2019-05-10T14:06:30.291Z,59.05
2019-05-10T14:09:37.128Z,61.27
2019-05-10T14:12:44.111Z,59.89
2019-05-10T14:15:50.707Z,61.16
2019-05-10T14:18:57.328Z,60.57
2019-05-10T14:22:04.266Z,57.52
2019-05-10T14:25:11.047Z,59.07
2019-05-10T14:28:17.709Z,60.84
2019-05-10T14:31:24.266Z,58.42
2019-05-10T14:34:30.832Z,58.77
2019-05-10T14:37:37.389Z,59.48
2019-05-10T14:40:44.973Z,60.42
2019-05-10T14:43:51.631Z,60.26
2019-05-10T14:46:58.230Z,60.58
2019-05-10T14:50:04.930Z,59.66
2019-05-10T14:53:11.546Z,58.68
2019-05-10T14:56:18.102Z,58.28
2019-05-10T14:59:24.679Z,59.87
2019-05-10T15:02:31.600Z,56.76
2019-05-10T15:05:38.106Z,58.57
2019-05-10T15:08:44.772Z,58.63
2019-05-10T15:11:51.387Z,59.05
2019-05-10T15:14:57.951Z,58.17
2019-05-10T15:18:05.665Z,58.37
2019-05-10T15:21:12.299Z,58.43
2019-05-10T15:24:18.822Z,58.34
2019-05-10T15:27:25.432Z,59.69
2019-05-10T15:30:31.889Z,57.98
2019-05-10T15:33:38.845Z,59.17
2019-05-10T15:36:46.795Z,58.95
2019-05-10T15:39:53.375Z,58.28
2019-05-10T15:43:02.926Z,59.71
2019-05-10T15:46:08.131Z,58.97
2019-05-10T15:49:22.693Z,57.80
2019-05-10T15:52:23.501Z,58.02
2019-05-10T15:55:30.152Z,55.62
2019-05-10T15:58:40.471Z,57.69
2019-05-10T16:01:45.838Z,56.55
2019-05-10T16:04:54.477Z,56.06
2019-05-10T16:08:01.099Z,56.39
2019-05-10T16:11:17.925Z,56.51
2019-05-10T16:14:15.884Z,56.70
2019-05-10T16:17:23.887Z,58.05
2019-05-10T16:20:31.616Z,57.90
2019-05-10T16:23:41.518Z,58.98
2019-05-10T16:26:47.398Z,58.71
2019-05-10T16:29:53.880Z,58.65
2019-05-10T16:33:00.455Z,59.01
2019-05-10T16:36:08.401Z,58.77
2019-05-10T16:39:15.050Z,58.51
2019-05-10T16:42:21.817Z,59.23
2019-05-10T16:45:28.475Z,59.53
2019-05-10T16:48:34.947Z,60.17
2019-05-10T16:51:42.364Z,60.90
2019-05-10T16:54:49.759Z,60.75
2019-05-10T16:57:56.205Z,60.12
2019-05-10T17:01:02.991Z,60.00
2019-05-10T17:04:09.568Z,60.74
2019-05-10T17:07:19.015Z,61.50
2019-05-10T17:10:27.091Z,62.60
2019-05-10T17:13:36.330Z,64.59
2019-05-10T17:16:41.009Z,65.54
2019-05-10T17:19:47.460Z,65.54
2019-05-10T17:22:53.959Z,65.01
2019-05-10T17:26:00.618Z,65.03
2019-05-10T17:29:12.367Z,65.17
2019-05-10T17:32:18.652Z,64.71
2019-05-10T17:35:23.769Z,65.07
2019-05-10T17:38:31.810Z,63.43
2019-05-10T17:41:38.384Z,63.84
2019-05-10T17:44:44.863Z,63.04
2019-05-10T17:47:51.678Z,63.23
2019-05-10T17:50:58.132Z,62.82
2019-05-10T17:54:04.842Z,62.94
2019-05-10T17:57:16.626Z,62.85
2019-05-10T18:00:19.828Z,63.80
2019-05-10T18:03:26.279Z,64.28
2019-05-10T18:06:33.224Z,69.47
2019-05-10T18:09:39.770Z,71.86
2019-05-10T18:12:46.329Z,73.54
2019-05-10T18:15:52.809Z,74.14
2019-05-10T18:18:59.384Z,76.00
2019-05-10T18:22:06.591Z,79.88
2019-05-10T18:25:20.378Z,80.35
2019-05-10T18:28:22.020Z,82.83
2019-05-10T18:31:28.742Z,80.35
2019-05-10T18:34:35.648Z,80.98
2019-05-10T18:37:42.225Z,80.75
2019-05-10T18:40:48.713Z,79.98
2019-05-10T18:43:55.349Z,80.46
2019-05-10T18:47:01.829Z,80.19
2019-05-10T18:50:08.679Z,80.43
2019-05-10T18:53:15.241Z,81.41
2019-05-10T18:56:29.295Z,80.98
2019-05-10T18:59:29.981Z,82.56
2019-05-10T19:02:36.686Z,83.29
2019-05-10T19:05:43.113Z,83.89
2019-05-10T19:08:50.256Z,83.60
2019-05-10T19:11:56.797Z,83.44
2019-05-10T19:15:09.074Z,83.70
2019-05-10T19:18:17.575Z,81.70
2019-05-10T19:21:25.029Z,80.01
2019-05-10T19:24:30.407Z,84.51
2019-05-10T19:27:38.713Z,83.91
2019-05-10T19:30:47.267Z,83.75
2019-05-10T19:33:53.750Z,83.79
2019-05-10T19:37:00.271Z,84.33
2019-05-10T19:40:07.920Z,83.63
2019-05-10T19:43:15.328Z,84.22
2019-05-10T19:46:23.836Z,84.08
2019-05-10T19:49:30.486Z,84.14
2019-05-10T19:52:37.455Z,83.56
2019-05-10T19:55:43.985Z,85.30
2019-05-10T19:58:51.624Z,83.62
2019-05-10T20:01:58.328Z,82.27
2019-05-10T20:05:05.629Z,83.47
2019-05-10T20:09:22.384Z,87.62
2019-05-10T20:12:28.917Z,91.76
2019-05-10T20:15:35.452Z,89.61
2019-05-10T20:18:41.957Z,91.37
2019-05-10T20:21:48.460Z,92.38
2019-05-10T20:24:54.945Z,94.82
2019-05-10T20:28:01.409Z,96.04
2019-05-10T20:31:07.899Z,97.41
2019-05-10T20:34:14.626Z,98.10
2019-05-10T20:37:21.196Z,99.44
2019-05-10T20:40:27.610Z,98.18
2019-05-10T20:43:34.417Z,92.84
2019-05-10T20:46:40.973Z,90.23
2019-05-10T20:49:47.464Z,89.93
2019-05-10T20:52:54.210Z,88.68
2019-05-10T20:56:00.688Z,90.09
2019-05-10T20:59:07.157Z,91.85
2019-05-10T21:02:13.877Z,88.97
2019-05-10T21:05:20.407Z,87.93
2019-05-10T21:08:26.913Z,87.44
2019-05-10T21:11:33.366Z,91.56
2019-05-10T21:14:39.966Z,88.13
2019-05-10T21:17:46.574Z,86.46
2019-05-10T21:20:53.163Z,93.01
2019-05-10T21:23:59.790Z,94.57
2019-05-10T21:27:06.480Z,94.65
2019-05-10T21:30:12.991Z,93.69
2019-05-10T21:33:19.382Z,92.92
2019-05-10T21:36:25.928Z,97.50
2019-05-10T21:39:32.515Z,99.39
2019-05-10T21:42:39.013Z,96.60
2019-05-10T21:45:45.816Z,95.87
2019-05-10T21:48:52.460Z,96.73
2019-05-10T21:51:58.976Z,98.16
2019-05-10T21:55:06.120Z,96.67
2019-05-10T21:58:12.617Z,95.45
2019-05-10T22:01:19.100Z,95.05
2019-05-10T22:04:25.596Z,95.26
2019-05-10T22:07:32.094Z,98.14
2019-05-10T22:10:38.719Z,99.18
2019-05-10T22:13:45.657Z,96.85
2019-05-10T22:16:52.205Z,95.90
2019-05-10T22:19:58.805Z,96.12
2019-05-10T22:23:05.723Z,96.84
2019-05-10T22:26:12.204Z,97.48
2019-05-10T22:29:18.909Z,97.91
2019-05-10T22:32:25.312Z,99.62
2019-05-10T22:35:31.885Z,97.03
2019-05-10T22:38:40.891Z,96.88
2019-05-10T22:41:47.431Z,99.35
2019-05-10T22:44:54.102Z,99.64
2019-05-10T22:48:00.648Z,98.86
2019-05-10T22:51:07.317Z,97.34
2019-05-10T22:54:15.480Z,96.75
2019-05-10T22:57:22.406Z,95.28
2019-05-10T23:00:29.242Z,97.56
2019-05-10T23:03:35.704Z,97.52
2019-05-10T23:06:44.532Z,97.94
2019-05-10T23:09:51.027Z,98.83
2019-05-10T23:12:57.527Z,99.61
2019-05-10T23:16:04.046Z,99.27
2019-05-10T23:19:10.597Z,99.35
2019-05-10T23:22:16.992Z,99.96
2019-05-10T23:25:23.776Z,99.26
2019-05-10T23:28:30.247Z,99.55
2019-05-10T23:31:36.737Z,99.00
2019-05-10T23:34:43.407Z,99.01
2019-05-10T23:37:49.912Z,98.29
2019-05-10T23:40:56.437Z,97.81
2019-05-10T23:44:03.334Z,97.21
2019-05-10T23:47:09.804Z,99.22
2019-05-10T23:50:16.357Z,96.72
2019-05-10T23:53:23.034Z,96.69
2019-05-10T23:56:29.562Z,97.06
2019-05-10T23:59:36.479Z,98.25
